Time;durP1;ratioP1;P1;durP2;ratioP2;P2;SDS_P1;SDS_P2;PMS_P1;PMS_P2;Temp;Humidity;BMP_temperature;BMP_pressure;BME280_temperature;BME280_humidity;BME280_pressure;Samples;Min_cycle;Max_cycle;Signal;HPM_P1;HPM_P2
2023/01/25 00:00:00;;;;;;;14.27;12.98;;;2.10;99.60;;;;;;5059291;28;20426;-76
2023/01/25 00:02:27;;;;;;;13.60;12.40;;;2.10;99.50;;;;;;5052872;28;20456;-78
2023/01/25 00:04:54;;;;;;;14.52;13.23;;;2.10;99.50;;;;;;5038269;28;20440;-78
2023/01/25 00:07:21;;;;;;;14.50;13.10;;;2.10;99.50;;;;;;5054782;28;20453;-78
2023/01/25 00:09:47;;;;;;;14.88;13.48;;;2.10;99.70;;;;;;5057363;28;20437;-78
2023/01/25 00:12:14;;;;;;;15.60;14.20;;;2.10;99.70;;;;;;5047012;28;20448;-78
2023/01/25 00:14:41;;;;;;;13.37;12.17;;;2.10;99.80;;;;;;5045768;28;20437;-77
2023/01/25 00:17:09;;;;;;;13.20;12.00;;;2.10;99.70;;;;;;5067346;28;20438;-77
2023/01/25 00:19:36;;;;;;;14.10;12.70;;;2.10;99.40;;;;;;5053219;28;20450;-77
2023/01/25 00:22:02;;;;;;;12.90;11.70;;;2.00;99.40;;;;;;5047635;28;20500;-78
2023/01/25 00:24:29;;;;;;;14.02;12.80;;;2.00;99.80;;;;;;5039676;28;20431;-77
2023/01/25 00:26:56;;;;;;;12.80;11.70;;;2.00;99.90;;;;;;5035117;28;20492;-76
2023/01/25 00:29:23;;;;;;;13.65;12.45;;;1.90;99.90;;;;;;5048415;28;20424;-77
2023/01/25 00:32:02;;;;;;;14.35;12.95;;;1.90;99.90;;;;;;5047778;28;20409;-77
2023/01/25 00:34:47;;;;;;;14.02;12.73;;;1.90;99.90;;;;;;5045887;28;20883;-76
2023/01/25 00:37:23;;;;;;;14.13;12.82;;;1.90;99.90;;;;;;5046853;28;20436;-76
2023/01/25 00:39:50;;;;;;;14.18;12.88;;;1.90;99.90;;;;;;5048580;28;20524;-76
2023/01/25 00:42:18;;;;;;;14.57;13.27;;;1.90;99.90;;;;;;5046244;28;20446;-76
2023/01/25 00:44:45;;;;;;;15.23;13.83;;;1.90;99.90;;;;;;5046893;28;20474;-77
2023/01/25 00:47:13;;;;;;;14.63;13.32;;;1.90;99.90;;;;;;5046617;28;20919;-78
2023/01/25 00:49:41;;;;;;;13.25;12.10;;;1.90;99.90;;;;;;5046771;28;20449;-78
2023/01/25 00:52:10;;;;;;;13.40;12.10;;;1.90;99.90;;;;;;5047166;28;20991;-76
2023/01/25 00:54:37;;;;;;;13.70;12.50;;;1.90;99.90;;;;;;5047993;28;20531;-78
2023/01/25 00:57:04;;;;;;;14.35;13.02;;;1.80;99.90;;;;;;5047836;28;20417;-76
2023/01/25 00:59:31;;;;;;;14.23;12.90;;;1.80;99.90;;;;;;5048558;28;20501;-76
2023/01/25 01:01:58;;;;;;;15.10;13.70;;;1.70;99.90;;;;;;5056224;28;20461;-77
2023/01/25 01:04:25;;;;;;;15.07;13.68;;;1.70;99.90;;;;;;5062849;28;20511;-76
2023/01/25 01:06:53;;;;;;;13.57;12.38;;;1.70;99.90;;;;;;5050138;28;20517;-77
2023/01/25 01:09:22;;;;;;;13.48;12.27;;;1.70;99.90;;;;;;5047573;28;20425;-76
2023/01/25 01:11:49;;;;;;;14.53;13.23;;;1.80;99.90;;;;;;5048896;28;20811;-77
2023/01/25 01:14:16;;;;;;;13.70;12.50;;;1.70;99.90;;;;;;5051620;28;20420;-76
2023/01/25 01:16:43;;;;;;;13.60;12.40;;;1.70;99.90;;;;;;5049106;28;20887;-76
2023/01/25 01:19:10;;;;;;;14.50;13.20;;;1.70;99.90;;;;;;5058608;28;20413;-76
2023/01/25 01:21:36;;;;;;;14.85;13.55;;;1.70;99.90;;;;;;5048281;28;20428;-76
2023/01/25 01:24:04;;;;;;;15.17;13.77;;;1.70;99.90;;;;;;5048325;28;20420;-78
2023/01/25 01:26:33;;;;;;;14.00;12.70;;;1.60;99.90;;;;;;5047888;28;20531;-76
2023/01/25 01:28:59;;;;;;;14.13;12.93;;;1.70;99.90;;;;;;5039599;28;20426;-76
2023/01/25 01:31:26;;;;;;;13.27;12.07;;;1.70;99.90;;;;;;5040097;28;20431;-77
2023/01/25 01:33:55;;;;;;;14.57;13.20;;;1.70;99.90;;;;;;5055703;28;20415;-75
2023/01/25 01:36:23;;;;;;;15.43;14.02;;;1.60;99.90;;;;;;5046703;28;20424;-76
2023/01/25 01:38:50;;;;;;;14.70;13.40;;;1.60;99.90;;;;;;5049715;28;20578;-77
2023/01/25 01:41:18;;;;;;;14.67;13.27;;;1.70;99.90;;;;;;5045710;28;20437;-76
2023/01/25 01:43:46;;;;;;;14.73;13.32;;;1.70;99.90;;;;;;5049424;28;20433;-76
2023/01/25 01:46:19;;;;;;;13.50;12.30;;;1.60;99.90;;;;;;5042517;28;20450;-76
2023/01/25 01:48:50;;;;;;;13.90;12.60;;;1.70;99.90;;;;;;5065588;28;20411;-77
2023/01/25 01:51:21;;;;;;;14.50;13.20;;;1.70;99.90;;;;;;5068951;28;20518;-76
2023/01/25 01:53:52;;;;;;;14.65;13.35;;;1.70;99.90;;;;;;5029126;28;20446;-77
2023/01/25 01:56:23;;;;;;;14.50;13.10;;;1.70;99.90;;;;;;5032503;28;20415;-76
2023/01/25 01:58:56;;;;;;;15.10;13.70;;;1.70;99.90;;;;;;5031794;28;20418;-78
2023/01/25 02:01:22;;;;;;;14.57;13.27;;;1.70;99.90;;;;;;5049252;28;20441;-77
2023/01/25 02:03:50;;;;;;;14.65;13.27;;;1.60;99.90;;;;;;5060185;28;20433;-77
2023/01/25 02:06:26;;;;;;;14.18;12.88;;;1.70;99.90;;;;;;5058499;28;20425;-76
2023/01/25 02:08:54;;;;;;;14.15;12.75;;;1.70;99.90;;;;;;5060493;28;20409;-77
2023/01/25 02:11:21;;;;;;;13.57;12.27;;;1.60;99.90;;;;;;5056776;28;20433;-76
2023/01/25 02:13:48;;;;;;;14.00;12.70;;;1.70;99.90;;;;;;5057830;28;20427;-76
2023/01/25 02:16:22;;;;;;;14.85;13.35;;;1.60;99.90;;;;;;5056499;28;20582;-76
2023/01/25 02:18:49;;;;;;;14.02;12.73;;;1.60;99.90;;;;;;5063561;28;20410;-77
2023/01/25 02:21:16;;;;;;;14.93;13.63;;;1.60;99.90;;;;;;5056478;28;20425;-76
2023/01/25 02:23:48;;;;;;;15.98;14.48;;;1.60;99.90;;;;;;5052745;28;20429;-77
2023/01/25 02:26:18;;;;;;;16.27;14.77;;;1.60;99.90;;;;;;5049450;28;20872;-78
2023/01/25 02:28:49;;;;;;;15.90;14.50;;;1.60;99.90;;;;;;5054918;28;20476;-77
2023/01/25 02:31:16;;;;;;;15.75;14.27;;;1.60;99.90;;;;;;5032921;28;20426;-77
2023/01/25 02:33:43;;;;;;;13.52;12.32;;;1.70;99.90;;;;;;5065992;28;21085;-76
2023/01/25 02:36:20;;;;;;;14.63;13.32;;;1.70;99.90;;;;;;5041055;28;20444;-75
2023/01/25 02:38:53;;;;;;;14.60;13.30;;;1.70;99.90;;;;;;5050140;28;20425;-76
2023/01/25 02:41:27;;;;;;;15.63;14.13;;;1.70;99.90;;;;;;5058068;28;20435;-76
2023/01/25 02:43:54;;;;;;;16.95;15.35;;;1.60;99.90;;;;;;5050566;28;20425;-77
2023/01/25 02:46:24;;;;;;;15.50;14.10;;;1.70;99.90;;;;;;5047015;28;20836;-75
2023/01/25 02:48:52;;;;;;;15.40;14.00;;;1.60;99.90;;;;;;5054501;28;20520;-77
2023/01/25 02:51:19;;;;;;;17.42;15.82;;;1.60;99.90;;;;;;5053281;28;20854;-76
2023/01/25 02:53:46;;;;;;;17.40;15.60;;;1.60;99.90;;;;;;5047761;28;20429;-77
2023/01/25 02:56:13;;;;;;;16.80;15.20;;;1.70;99.90;;;;;;5048674;28;20444;-77
2023/01/25 02:58:41;;;;;;;14.90;13.52;;;1.70;99.90;;;;;;5048400;28;20895;-76
2023/01/25 03:01:09;;;;;;;16.38;14.88;;;1.70;99.90;;;;;;5046790;28;21092;-76
2023/01/25 03:03:35;;;;;;;15.45;14.05;;;1.70;99.90;;;;;;5055172;28;20430;-78
2023/01/25 03:06:02;;;;;;;15.85;14.35;;;1.70;99.90;;;;;;5060524;28;20417;-78
2023/01/25 03:08:29;;;;;;;15.50;14.10;;;1.60;99.90;;;;;;5028498;28;20411;-78
2023/01/25 03:10:57;;;;;;;16.75;15.25;;;1.60;99.90;;;;;;5029977;28;20801;-77
2023/01/25 03:13:24;;;;;;;17.25;15.65;;;1.60;99.90;;;;;;5029591;28;20481;-78
2023/01/25 03:15:52;;;;;;;16.50;15.00;;;1.70;99.90;;;;;;5052855;28;20444;-77
2023/01/25 03:18:19;;;;;;;15.68;14.18;;;1.70;99.90;;;;;;5078213;28;20429;-75
2023/01/25 03:20:46;;;;;;;15.07;13.68;;;1.70;99.90;;;;;;5077280;28;20425;-76
2023/01/25 03:23:13;;;;;;;16.58;15.07;;;1.60;99.90;;;;;;5051179;28;20799;-77
2023/01/25 03:25:39;;;;;;;16.27;14.77;;;1.70;99.90;;;;;;5049011;28;20421;-77
2023/01/25 03:28:06;;;;;;;16.83;15.23;;;1.60;99.90;;;;;;5032414;28;20949;-77
2023/01/25 03:30:33;;;;;;;17.40;15.70;;;1.60;99.90;;;;;;5056131;28;20918;-76
2023/01/25 03:33:01;;;;;;;15.95;14.55;;;1.60;99.90;;;;;;5073545;28;20422;-78
2023/01/25 03:35:28;;;;;;;17.80;16.10;;;1.60;99.90;;;;;;5051759;28;20417;-76
2023/01/25 03:37:55;;;;;;;16.58;15.05;;;1.50;99.90;;;;;;5053546;28;20599;-78
2023/01/25 03:40:22;;;;;;;17.33;15.63;;;1.50;99.90;;;;;;5065298;28;20431;-77
2023/01/25 03:42:48;;;;;;;16.98;15.32;;;1.50;99.90;;;;;;5063814;28;20439;-77
2023/01/25 03:45:15;;;;;;;17.60;16.00;;;1.50;99.90;;;;;;5072455;28;20468;-76
2023/01/25 03:47:42;;;;;;;16.10;14.60;;;1.50;99.90;;;;;;5060925;28;20432;-77
2023/01/25 03:50:11;;;;;;;17.23;15.63;;;1.50;99.90;;;;;;5038528;28;20411;-78
2023/01/25 03:52:40;;;;;;;16.10;14.60;;;1.40;99.90;;;;;;5045715;28;20449;-77
2023/01/25 03:55:08;;;;;;;17.00;15.40;;;1.40;99.90;;;;;;5059842;28;20421;-75
2023/01/25 03:57:35;;;;;;;15.90;14.50;;;1.40;99.90;;;;;;5056833;28;20413;-77
2023/01/25 04:00:02;;;;;;;15.50;14.10;;;1.40;99.90;;;;;;5052687;28;20448;-77
2023/01/25 04:02:29;;;;;;;17.27;15.57;;;1.40;99.90;;;;;;5062385;28;20419;-76
2023/01/25 04:04:56;;;;;;;16.63;15.13;;;1.40;99.90;;;;;;5065213;28;20515;-77
2023/01/25 04:07:24;;;;;;;16.65;15.07;;;1.40;99.90;;;;;;5048636;28;20428;-76
2023/01/25 04:09:51;;;;;;;16.65;15.05;;;1.40;99.90;;;;;;5048993;28;20413;-78
2023/01/25 04:12:17;;;;;;;15.60;14.18;;;1.50;99.90;;;;;;5046840;28;20437;-76
2023/01/25 04:14:44;;;;;;;14.83;13.40;;;1.50;99.90;;;;;;5055610;28;20442;-77
2023/01/25 04:17:11;;;;;;;14.13;12.82;;;1.50;99.90;;;;;;5052899;28;20444;-76
2023/01/25 04:19:38;;;;;;;14.60;13.20;;;1.40;99.90;;;;;;5049576;28;20424;-77
2023/01/25 04:22:05;;;;;;;15.18;13.77;;;1.40;99.90;;;;;;5046721;28;20424;-78
2023/01/25 04:24:33;;;;;;;14.93;13.53;;;1.40;99.90;;;;;;5047691;28;20486;-78
2023/01/25 04:27:00;;;;;;;16.45;14.85;;;1.40;99.90;;;;;;5047963;28;20432;-76
2023/01/25 04:29:26;;;;;;;17.10;15.50;;;1.40;99.90;;;;;;5055364;28;20901;-78
2023/01/25 04:31:53;;;;;;;17.08;15.38;;;1.50;99.90;;;;;;5051234;28;20433;-77
2023/01/25 04:34:20;;;;;;;17.60;15.80;;;1.50;99.90;;;;;;5059821;28;20964;-77
2023/01/25 04:36:47;;;;;;;17.05;15.45;;;1.50;99.90;;;;;;5056588;28;20421;-77
2023/01/25 04:39:13;;;;;;;17.60;15.80;;;1.50;99.90;;;;;;5048133;28;20463;-76
2023/01/25 04:41:41;;;;;;;17.55;15.85;;;1.50;99.90;;;;;;5049343;28;20421;-76
2023/01/25 04:44:08;;;;;;;16.05;14.50;;;1.60;99.90;;;;;;5051216;28;20779;-76
2023/01/25 04:46:35;;;;;;;16.30;14.70;;;1.60;99.90;;;;;;5052293;28;20424;-76
2023/01/25 04:49:02;;;;;;;16.33;14.73;;;1.60;99.90;;;;;;5047805;28;20505;-76
2023/01/25 04:51:29;;;;;;;15.65;14.15;;;1.50;99.90;;;;;;5047611;28;20425;-75
2023/01/25 04:53:55;;;;;;;15.93;14.43;;;1.50;99.90;;;;;;5046142;28;20520;-77
2023/01/25 04:56:22;;;;;;;16.05;14.45;;;1.50;99.90;;;;;;5048188;28;20420;-76
2023/01/25 04:58:50;;;;;;;16.75;15.25;;;1.50;99.90;;;;;;5047554;28;20458;-78
2023/01/25 05:01:17;;;;;;;16.55;14.85;;;1.40;99.90;;;;;;5054246;28;20425;-76
2023/01/25 05:03:43;;;;;;;17.80;16.10;;;1.40;99.90;;;;;;5054214;28;20455;-76
2023/01/25 05:06:10;;;;;;;17.50;15.80;;;1.40;99.90;;;;;;5060842;28;20416;-77
2023/01/25 05:08:37;;;;;;;16.42;14.82;;;1.40;99.90;;;;;;5044257;28;20429;-76
2023/01/25 05:11:04;;;;;;;18.02;16.23;;;1.40;99.90;;;;;;5041839;28;20440;-75
2023/01/25 05:13:30;;;;;;;17.00;15.40;;;1.50;99.90;;;;;;5043961;28;20440;-75
2023/01/25 05:15:59;;;;;;;16.48;14.88;;;1.50;99.90;;;;;;5041878;28;20440;-77
2023/01/25 05:18:25;;;;;;;16.90;15.20;;;1.50;99.90;;;;;;5041363;28;20430;-77
2023/01/25 05:20:54;;;;;;;17.20;15.60;;;1.50;99.90;;;;;;5045420;28;20448;-76
2023/01/25 05:23:21;;;;;;;16.25;14.75;;;1.40;99.90;;;;;;5052488;28;20949;-75
2023/01/25 05:28:34;;;;;;;16.65;15.00;;;1.50;99.90;;;;;;5046904;28;20482;-78
2023/01/25 05:31:05;;;;;;;17.33;15.63;;;1.50;99.90;;;;;;5056301;28;20410;-78
2023/01/25 05:33:31;;;;;;;17.23;15.63;;;1.50;99.90;;;;;;5066584;28;20440;-77
2023/01/25 05:35:59;;;;;;;16.40;14.80;;;1.50;99.90;;;;;;5052642;28;20425;-78
2023/01/25 05:38:26;;;;;;;17.70;15.93;;;1.50;99.90;;;;;;5051182;28;20925;-77
2023/01/25 05:40:53;;;;;;;15.82;14.32;;;1.50;99.90;;;;;;5054340;28;20417;-77
2023/01/25 05:43:20;;;;;;;16.83;15.23;;;1.50;99.90;;;;;;5044594;28;20767;-77
2023/01/25 05:45:52;;;;;;;16.65;15.05;;;1.50;99.90;;;;;;5057962;28;20432;-78
2023/01/25 05:48:20;;;;;;;18.90;17.20;;;1.50;99.90;;;;;;5052979;28;20524;-77
2023/01/25 05:50:47;;;;;;;17.08;15.57;;;1.50;99.90;;;;;;5044703;28;20462;-77
2023/01/25 05:56:12;;;;;;;17.33;15.68;;;1.50;99.90;;;;;;5071258;28;20880;-81
2023/01/25 05:58:49;;;;;;;17.55;15.95;;;1.50;99.90;;;;;;5021294;28;20429;-83
2023/01/25 06:04:15;;;;;;;16.45;14.85;;;1.50;99.90;;;;;;5047227;28;20420;-82
2023/01/25 06:06:57;;;;;;;15.82;14.32;;;1.50;99.90;;;;;;5067266;28;20449;-81
2023/01/25 06:09:30;;;;;;;17.55;15.85;;;1.50;99.90;;;;;;5064826;28;20449;-79
2023/01/25 06:11:56;;;;;;;16.77;15.17;;;1.40;99.90;;;;;;5068581;28;20596;-80
2023/01/25 06:14:23;;;;;;;16.90;15.30;;;1.40;99.90;;;;;;5068985;28;20465;-78
2023/01/25 06:16:50;;;;;;;17.85;16.15;;;1.40;99.90;;;;;;5064867;28;20755;-81
2023/01/25 06:19:18;;;;;;;19.60;17.70;;;1.40;99.90;;;;;;5076423;28;20407;-80
2023/01/25 06:21:45;;;;;;;18.70;17.00;;;1.40;99.90;;;;;;5066438;28;20436;-79
2023/01/25 06:24:12;;;;;;;17.73;16.02;;;1.40;99.90;;;;;;5064070;28;20452;-80
2023/01/25 06:26:39;;;;;;;16.13;14.63;;;1.40;99.90;;;;;;5064626;28;20456;-80
2023/01/25 06:29:07;;;;;;;17.15;15.55;;;1.40;99.90;;;;;;5064300;28;20450;-79
2023/01/25 06:31:34;;;;;;;18.23;16.52;;;1.40;99.90;;;;;;5060027;28;20440;-81
2023/01/25 06:34:05;;;;;;;19.20;17.30;;;1.40;99.90;;;;;;5072543;28;20431;-82
2023/01/25 06:54:05;;;;;;;19.65;17.75;;;1.40;99.90;;;;;;4934309;29;20410;-78
2023/01/25 07:00:33;;;;;;;19.60;17.80;;;1.40;99.90;;;;;;4967209;28;20449;-82
2023/01/25 07:27:45;;;;;;;20.63;18.52;;;1.40;99.90;;;;;;5208764;23;20465;-84
2023/01/25 07:33:22;;;;;;;20.27;18.27;;;1.40;99.90;;;;;;5012902;28;20482;-83
2023/01/25 07:36:15;;;;;;;21.13;18.92;;;1.40;99.90;;;;;;5029610;28;20459;-83
2023/01/25 09:27:44;;;;;;;22.08;19.88;;;1.60;99.90;;;;;;5913439;23;20640;-82
2023/01/25 09:30:13;;;;;;;22.70;20.30;;;1.60;99.90;;;;;;5023895;28;20514;-80
2023/01/25 12:56:47;;;;;;;28.35;25.35;;;1.90;99.90;;;;;;5023153;23;20441;-82
2023/01/25 12:59:27;;;;;;;29.52;26.42;;;1.90;99.90;;;;;;4899338;29;20434;-80
2023/01/25 13:02:21;;;;;;;28.35;25.35;;;1.90;99.90;;;;;;4897212;29;20590;-81
2023/01/25 13:05:12;;;;;;;29.38;26.30;;;2.00;99.90;;;;;;4893703;29;20517;-83
2023/01/25 13:07:58;;;;;;;29.93;26.73;;;2.00;99.90;;;;;;4881667;29;20448;-83
2023/01/25 13:10:38;;;;;;;27.83;24.83;;;2.00;99.90;;;;;;4882684;29;20519;-82
2023/01/25 13:13:27;;;;;;;28.20;25.20;;;2.00;99.90;;;;;;4897940;29;20447;-82
2023/01/25 13:16:01;;;;;;;27.25;24.45;;;2.00;99.90;;;;;;4898270;29;20419;-82
2023/01/25 13:18:43;;;;;;;26.50;23.70;;;2.00;99.90;;;;;;4878103;29;20943;-80
2023/01/25 13:21:41;;;;;;;26.55;23.75;;;2.00;99.90;;;;;;4877902;29;20439;-82
2023/01/25 13:24:19;;;;;;;26.47;23.70;;;1.90;99.90;;;;;;4895541;29;20450;-82
2023/01/25 13:27:11;;;;;;;25.20;22.50;;;1.90;99.90;;;;;;4899328;29;20550;-82
2023/01/25 13:29:58;;;;;;;23.95;21.45;;;1.90;99.90;;;;;;4897190;29;20423;-82
2023/01/25 13:32:59;;;;;;;25.92;23.23;;;1.80;99.90;;;;;;4899652;29;20418;-81
2023/01/25 13:35:39;;;;;;;26.20;23.40;;;1.80;99.90;;;;;;4906765;29;20461;-82
2023/01/25 13:41:22;;;;;;;28.93;24.63;;;1.70;99.90;;;;;;4877259;29;20524;-82
2023/01/25 13:44:17;;;;;;;30.45;25.20;;;1.70;99.90;;;;;;4897601;29;20455;-81
2023/01/25 13:47:11;;;;;;;29.75;24.98;;;1.70;99.90;;;;;;4898310;29;20459;-81
2023/01/25 13:49:49;;;;;;;28.35;25.35;;;1.80;99.90;;;;;;4899264;29;20445;-83
2023/01/25 13:52:29;;;;;;;27.43;24.53;;;1.80;99.90;;;;;;4878606;29;20541;-81
2023/01/25 13:55:06;;;;;;;27.30;24.40;;;1.80;99.90;;;;;;4896574;29;20455;-83
2023/01/25 13:57:44;;;;;;;26.42;23.35;;;1.80;99.90;;;;;;4882656;29;20444;-81
2023/01/25 14:00:25;;;;;;;27.08;24.25;;;1.80;99.90;;;;;;4882545;29;20425;-80
2023/01/25 14:03:06;;;;;;;26.90;24.13;;;1.70;99.90;;;;;;4880459;29;20448;-81
2023/01/25 14:05:50;;;;;;;30.23;26.85;;;1.70;99.90;;;;;;4880973;29;20500;-80
2023/01/25 14:08:26;;;;;;;27.67;24.70;;;1.70;99.90;;;;;;4887027;29;20434;-82
2023/01/25 14:11:03;;;;;;;28.05;25.15;;;1.70;99.90;;;;;;4888726;29;20508;-81
2023/01/25 14:13:37;;;;;;;28.05;24.92;;;1.70;99.90;;;;;;4894411;29;20452;-82
2023/01/25 14:16:14;;;;;;;28.58;25.23;;;1.80;99.90;;;;;;4882769;29;20431;-81
2023/01/25 14:18:54;;;;;;;28.42;25.33;;;1.80;99.90;;;;;;4883710;29;20523;-80
2023/01/25 14:21:25;;;;;;;28.87;25.77;;;1.80;99.90;;;;;;4883263;29;20511;-81
2023/01/25 14:24:11;;;;;;;28.30;25.20;;;1.90;99.90;;;;;;4884450;29;20440;-82
2023/01/25 14:26:46;;;;;;;28.27;25.20;;;1.90;99.90;;;;;;4869413;29;20521;-83
2023/01/25 14:29:23;;;;;;;29.45;25.02;;;1.80;99.90;;;;;;4879202;29;20582;-81
2023/01/25 14:31:56;;;;;;;29.77;26.43;;;1.80;99.90;;;;;;4899589;29;20553;-81
2023/01/25 14:34:44;;;;;;;31.58;25.85;;;1.70;99.90;;;;;;4874839;29;20438;-80
2023/01/25 14:37:32;;;;;;;30.45;25.98;;;1.70;99.90;;;;;;4873916;29;20426;-84
2023/01/25 14:40:21;;;;;;;29.17;25.20;;;1.60;99.90;;;;;;4874753;29;20502;-82
2023/01/25 14:43:08;;;;;;;30.27;24.92;;;1.60;99.90;;;;;;4874374;29;20441;-82
2023/01/25 14:49:01;;;;;;;31.17;25.67;;;1.50;99.90;;;;;;4873541;29;20585;-82
2023/01/25 14:54:42;;;;;;;30.40;25.73;;;1.50;99.90;;;;;;4873341;29;20510;-82
2023/01/25 14:57:35;;;;;;;32.30;26.27;;;1.40;99.90;;;;;;4872574;29;20422;-83
2023/01/25 15:00:21;;;;;;;30.45;25.80;;;1.40;99.90;;;;;;4867319;29;20449;-82
2023/01/25 15:11:37;;;;;;;32.95;26.67;;;1.50;99.90;;;;;;4919030;29;20448;-80
2023/01/25 15:47:59;;;;;;;37.90;29.88;;;1.30;99.90;;;;;;4960458;29;20453;-81
2023/01/25 15:50:27;;;;;;;39.13;30.88;;;1.20;99.90;;;;;;4953108;29;20455;-82
2023/01/25 15:53:03;;;;;;;38.63;30.20;;;1.20;99.90;;;;;;4947051;29;20446;-82
2023/01/25 15:55:33;;;;;;;39.50;29.90;;;1.20;99.90;;;;;;4937222;29;20759;-81
2023/01/25 16:14:46;;;;;;;43.30;31.08;;;1.30;99.90;;;;;;4888428;29;20434;-81
2023/01/25 16:17:18;;;;;;;43.22;31.10;;;1.30;99.90;;;;;;4893062;29;20491;-80
2023/01/25 16:19:46;;;;;;;43.40;31.20;;;1.30;99.90;;;;;;4928877;29;20436;-80
2023/01/25 16:22:14;;;;;;;44.65;32.22;;;1.30;99.90;;;;;;4943511;29;20436;-80
2023/01/25 16:24:47;;;;;;;42.83;31.17;;;1.30;99.90;;;;;;4944350;29;20459;-80
2023/01/25 16:27:24;;;;;;;44.95;31.63;;;1.30;99.90;;;;;;4953440;29;20435;-79
2023/01/25 16:29:51;;;;;;;43.28;31.38;;;1.30;99.90;;;;;;4959645;29;20425;-80
2023/01/25 16:32:18;;;;;;;46.10;31.25;;;1.20;99.90;;;;;;4952010;29;20423;-80
2023/01/25 16:34:45;;;;;;;45.27;32.30;;;1.20;99.90;;;;;;4947267;29;20422;-80
2023/01/25 16:37:15;;;;;;;46.00;31.17;;;1.10;99.90;;;;;;4948131;29;20459;-80
2023/01/25 16:39:42;;;;;;;44.00;31.27;;;1.10;99.90;;;;;;4957770;29;20437;-80
2023/01/25 16:42:09;;;;;;;48.63;31.52;;;1.10;99.90;;;;;;4949262;29;20483;-80
2023/01/25 16:44:38;;;;;;;43.93;29.40;;;1.10;99.90;;;;;;4938516;29;20506;-81
2023/01/25 16:47:05;;;;;;;46.35;31.45;;;1.10;99.90;;;;;;4955009;28;20422;-80
2023/01/25 16:49:32;;;;;;;45.38;30.15;;;1.00;99.90;;;;;;4940681;29;20440;-79
2023/01/25 16:52:01;;;;;;;47.35;31.75;;;1.00;99.90;;;;;;4952049;29;20449;-79
2023/01/25 16:54:28;;;;;;;48.80;32.80;;;1.00;99.90;;;;;;4952385;29;20417;-80
2023/01/25 16:56:55;;;;;;;47.88;31.80;;;1.00;99.90;;;;;;4952401;29;20488;-78
2023/01/25 16:59:23;;;;;;;49.63;31.85;;;1.00;99.90;;;;;;4946198;29;20416;-79
2023/01/25 17:01:58;;;;;;;48.40;30.33;;;1.10;99.90;;;;;;4935323;29;20453;-79
2023/01/25 17:04:25;;;;;;;46.63;29.67;;;1.00;99.90;;;;;;4928531;29;20476;-80
2023/01/25 17:06:53;;;;;;;43.00;29.27;;;1.00;99.90;;;;;;4931499;29;20485;-79
2023/01/25 17:09:22;;;;;;;43.40;29.92;;;1.00;99.90;;;;;;4943547;29;20512;-80
2023/01/25 17:11:49;;;;;;;48.42;30.52;;;0.90;99.90;;;;;;4935309;29;20432;-79
2023/01/25 17:14:17;;;;;;;48.28;31.73;;;0.90;99.90;;;;;;4935338;29;20431;-79
2023/01/25 17:16:46;;;;;;;47.95;30.80;;;0.90;99.90;;;;;;4932742;29;20454;-78
2023/01/25 17:19:15;;;;;;;48.97;33.00;;;0.90;99.90;;;;;;4934448;29;20569;-77
2023/01/25 17:21:43;;;;;;;47.72;31.55;;;0.80;99.90;;;;;;4936271;29;20449;-79
2023/01/25 17:24:12;;;;;;;50.92;33.50;;;0.80;99.90;;;;;;4930687;29;20431;-77
2023/01/25 17:26:39;;;;;;;45.33;31.75;;;0.80;99.90;;;;;;4934532;29;20445;-76
2023/01/25 17:29:06;;;;;;;49.40;32.33;;;0.80;99.90;;;;;;4934417;29;20454;-77
2023/01/25 17:31:34;;;;;;;46.95;31.38;;;0.80;99.90;;;;;;4934598;29;20427;-76
2023/01/25 17:34:03;;;;;;;49.17;33.38;;;0.80;99.90;;;;;;4934873;29;20437;-76
2023/01/25 17:36:31;;;;;;;52.20;33.60;;;0.80;99.90;;;;;;4938535;29;20435;-77
2023/01/25 17:39:02;;;;;;;60.53;34.73;;;0.80;99.90;;;;;;4933877;29;20489;-76
2023/01/25 17:41:28;;;;;;;54.10;32.67;;;0.80;99.90;;;;;;4932224;29;20454;-77
2023/01/25 17:43:56;;;;;;;50.50;30.75;;;0.80;99.90;;;;;;4934311;29;20447;-75
2023/01/25 17:46:25;;;;;;;56.50;33.03;;;0.80;99.90;;;;;;4943885;29;20522;-77
2023/01/25 17:48:52;;;;;;;50.90;31.77;;;0.70;99.90;;;;;;4936756;29;20997;-78
2023/01/25 17:51:20;;;;;;;47.20;30.95;;;0.70;99.90;;;;;;4931359;29;20447;-77
2023/01/25 17:53:48;;;;;;;53.63;32.63;;;0.70;99.90;;;;;;4940008;29;20938;-77
2023/01/25 17:56:15;;;;;;;51.50;31.50;;;0.60;99.90;;;;;;4939292;29;20451;-77
2023/01/25 17:58:42;;;;;;;51.63;32.80;;;0.60;99.90;;;;;;4940584;28;20457;-79
2023/01/25 18:01:14;;;;;;;49.17;31.15;;;0.70;99.90;;;;;;4935779;29;20835;-79
2023/01/25 18:03:42;;;;;;;55.17;31.52;;;0.70;99.90;;;;;;4941177;29;20826;-78
2023/01/25 18:06:09;;;;;;;50.63;31.05;;;0.70;99.90;;;;;;4939813;29;20485;-79
2023/01/25 18:08:40;;;;;;;49.53;31.10;;;0.70;99.90;;;;;;4939568;29;20452;-79
2023/01/25 18:11:09;;;;;;;48.58;31.08;;;0.70;99.90;;;;;;4937764;29;20443;-79
2023/01/25 18:13:39;;;;;;;48.80;30.98;;;0.80;99.90;;;;;;4935715;29;20526;-78
2023/01/25 18:16:07;;;;;;;42.90;29.58;;;0.80;99.90;;;;;;4929048;29;20910;-75
2023/01/25 18:18:34;;;;;;;40.97;28.38;;;0.90;99.90;;;;;;4936880;29;20931;-76
2023/01/25 18:21:06;;;;;;;43.42;29.27;;;0.90;99.90;;;;;;4928261;29;20459;-76
2023/01/25 18:23:33;;;;;;;43.38;29.27;;;0.90;99.90;;;;;;4934257;29;20526;-76
2023/01/25 18:25:59;;;;;;;43.47;29.33;;;0.80;99.90;;;;;;4940919;29;20454;-76
2023/01/25 18:28:28;;;;;;;43.40;29.87;;;0.80;99.90;;;;;;4932847;29;20519;-77
2023/01/25 18:30:59;;;;;;;44.60;30.15;;;0.70;99.90;;;;;;4947746;29;20430;-77
2023/01/25 18:33:26;;;;;;;44.50;27.92;;;0.80;99.90;;;;;;4934165;29;20466;-76
2023/01/25 18:35:53;;;;;;;47.22;30.98;;;0.70;99.90;;;;;;4932148;29;20490;-77
2023/01/25 18:38:19;;;;;;;42.95;29.27;;;0.70;99.90;;;;;;4936898;29;20443;-77
2023/01/25 18:40:46;;;;;;;43.47;29.33;;;0.70;99.90;;;;;;4928769;29;20507;-77
2023/01/25 18:43:15;;;;;;;41.20;28.48;;;0.80;99.90;;;;;;4929028;29;20443;-76
2023/01/25 18:45:43;;;;;;;44.03;31.70;;;0.80;99.90;;;;;;4943657;29;20826;-78
2023/01/25 18:48:12;;;;;;;46.57;30.87;;;0.70;99.90;;;;;;4938059;29;20458;-76
2023/01/25 18:50:40;;;;;;;42.97;30.27;;;0.60;99.90;;;;;;4930779;29;20831;-78
2023/01/25 18:53:07;;;;;;;41.60;27.83;;;0.60;99.90;;;;;;4930235;29;20487;-78
2023/01/25 18:55:34;;;;;;;41.72;28.48;;;0.60;99.90;;;;;;4932558;29;20482;-80
2023/01/25 18:58:02;;;;;;;39.90;26.25;;;0.70;99.90;;;;;;4927303;29;20446;-79
2023/01/25 19:00:29;;;;;;;34.47;24.00;;;0.70;99.90;;;;;;4931993;29;20440;-79
2023/01/25 19:02:59;;;;;;;37.03;24.43;;;0.70;99.90;;;;;;4929040;29;20439;-77
2023/01/25 19:05:26;;;;;;;38.25;24.98;;;0.60;99.90;;;;;;4928980;29;20455;-73
2023/01/25 19:07:53;;;;;;;41.73;26.37;;;0.50;99.90;;;;;;4933751;29;20547;-74
2023/01/25 19:10:20;;;;;;;40.25;26.92;;;0.50;99.90;;;;;;4934650;29;20435;-74
2023/01/25 19:12:47;;;;;;;36.22;22.70;;;0.50;99.90;;;;;;4942245;29;20454;-74
2023/01/25 19:15:13;;;;;;;32.08;22.88;;;0.40;99.90;;;;;;4940396;29;20473;-75
2023/01/25 19:17:40;;;;;;;30.58;21.08;;;0.30;99.90;;;;;;4948952;29;20450;-75
2023/01/25 19:20:10;;;;;;;29.73;22.63;;;0.40;99.90;;;;;;4948040;29;20495;-74
2023/01/25 19:22:38;;;;;;;31.30;22.35;;;0.40;99.90;;;;;;4948346;29;20531;-76
2023/01/25 19:25:06;;;;;;;30.58;22.15;;;0.40;99.90;;;;;;4928263;29;20510;-77
2023/01/25 19:27:33;;;;;;;28.38;21.45;;;0.40;99.90;;;;;;4931546;29;20454;-76
2023/01/25 19:30:00;;;;;;;25.55;19.50;;;0.50;99.90;;;;;;4931066;29;20914;-75
2023/01/25 19:32:26;;;;;;;23.77;18.20;;;0.50;99.90;;;;;;4934521;29;20459;-74
2023/01/25 19:34:53;;;;;;;24.10;18.15;;;0.60;99.90;;;;;;4936630;29;20439;-74
2023/01/25 19:37:21;;;;;;;21.35;16.98;;;0.50;99.90;;;;;;4945364;29;20516;-72
2023/01/25 19:39:48;;;;;;;19.10;15.10;;;0.40;99.90;;;;;;4942024;29;20953;-73
2023/01/25 19:42:15;;;;;;;23.75;17.20;;;0.40;99.90;;;;;;4947138;29;20425;-73
2023/01/25 19:44:41;;;;;;;22.20;16.77;;;0.30;99.90;;;;;;4945876;29;20431;-74
2023/01/25 19:47:08;;;;;;;23.63;18.42;;;0.30;99.90;;;;;;4936415;29;20443;-72
2023/01/25 19:49:35;;;;;;;22.07;17.80;;;0.30;99.90;;;;;;4935869;29;20434;-75
2023/01/25 19:52:02;;;;;;;23.10;17.95;;;0.20;99.90;;;;;;4933990;29;20446;-74
2023/01/25 19:54:30;;;;;;;23.10;16.63;;;0.20;99.90;;;;;;4930448;29;20482;-72
2023/01/25 19:56:57;;;;;;;24.05;18.02;;;0.20;99.90;;;;;;4936835;29;20448;-74
2023/01/25 19:59:26;;;;;;;25.20;17.80;;;0.10;99.90;;;;;;4929465;29;20439;-74
2023/01/25 20:01:53;;;;;;;23.67;16.73;;;0.10;99.90;;;;;;4931979;29;20461;-72
2023/01/25 20:04:21;;;;;;;23.65;16.33;;;0.00;99.90;;;;;;4928384;29;20431;-76
2023/01/25 20:06:49;;;;;;;23.02;17.35;;;-0.10;99.90;;;;;;4932117;29;20510;-78
2023/01/25 20:09:18;;;;;;;25.50;18.58;;;-0.10;99.90;;;;;;4943654;28;20683;-78